Time;durP1;ratioP1;P1;durP2;ratioP2;P2;SDS_P1;SDS_P2;PMS_P1;PMS_P2;Temp;Humidity;BMP_temperature;BMP_pressure;BME280_temperature;BME280_humidity;BME280_pressure;Samples;Min_cycle;Max_cycle;Signal;HPM_P1;HPM_P2
2022/06/07 00:02:01;;;;;;;3.40;1.85;;;;;;;15.46;100.00;98680.63;5045622;28;20033;-72
2022/06/07 00:04:26;;;;;;;3.85;1.80;;;;;;;15.52;100.00;98702.28;5048865;28;20052;-71
2022/06/07 00:06:51;;;;;;;6.82;1.83;;;;;;;15.47;100.00;98713.09;5049473;28;20037;-71
2022/06/07 00:09:16;;;;;;;3.33;1.98;;;;;;;15.46;100.00;98724.25;5046282;28;20021;-72
2022/06/07 00:11:42;;;;;;;3.20;1.50;;;;;;;15.59;100.00;98706.78;5048660;28;20159;-71
2022/06/07 00:14:07;;;;;;;3.97;2.15;;;;;;;15.49;100.00;98708.22;5049258;28;20028;-71
2022/06/07 00:16:32;;;;;;;6.63;2.22;;;;;;;15.59;100.00;98704.06;5051837;28;20021;-71
2022/06/07 00:18:58;;;;;;;3.47;1.80;;;;;;;15.72;100.00;98709.31;5051308;28;20112;-72
2022/06/07 00:21:23;;;;;;;2.70;1.75;;;;;;;15.64;100.00;98704.19;5049437;28;20029;-71
2022/06/07 00:23:48;;;;;;;3.50;2.05;;;;;;;15.82;100.00;98714.16;5052718;28;20025;-71
2022/06/07 00:26:13;;;;;;;2.95;2.00;;;;;;;15.81;100.00;98717.97;5052520;28;20067;-71
2022/06/07 00:28:39;;;;;;;3.47;1.92;;;;;;;15.84;100.00;98717.47;5051265;28;20021;-71
2022/06/07 00:31:04;;;;;;;4.88;2.00;;;;;;;15.79;100.00;98704.53;5052002;28;20508;-71
2022/06/07 00:33:30;;;;;;;5.82;2.20;;;;;;;15.72;100.00;98709.31;5049389;28;20530;-71
2022/06/07 00:35:56;;;;;;;6.57;2.08;;;;;;;15.78;100.00;98716.53;5044908;28;20017;-71
2022/06/07 00:38:21;;;;;;;5.35;2.40;;;;;;;15.59;100.00;98709.50;5050741;28;20027;-71
2022/06/07 00:40:47;;;;;;;4.28;2.00;;;;;;;15.53;100.00;98719.47;5048617;28;20112;-71
2022/06/07 00:43:12;;;;;;;3.28;2.05;;;;;;;15.40;100.00;98690.56;5044173;28;20028;-71
2022/06/07 00:45:38;;;;;;;2.20;2.00;;;;;;;15.52;100.00;98715.94;5048427;28;20052;-71
2022/06/07 00:48:05;;;;;;;3.03;2.15;;;;;;;15.36;100.00;98697.56;5047925;28;20028;-71
2022/06/07 00:50:56;;;;;;;4.05;1.77;;;;;;;15.36;100.00;98711.19;5045684;28;20108;-70
2022/06/07 00:53:27;;;;;;;2.75;2.00;;;;;;;15.48;100.00;98709.31;5048363;28;20033;-71
2022/06/07 00:55:53;;;;;;;2.83;2.38;;;;;;;15.36;100.00;98708.47;5050635;28;20073;-71
2022/06/07 00:58:18;;;;;;;3.00;1.90;;;;;;;15.27;100.00;98699.81;5043981;28;20053;-71
2022/06/07 01:00:44;;;;;;;2.20;1.77;;;;;;;15.23;100.00;98717.69;5047769;28;20108;-71
2022/06/07 01:03:10;;;;;;;4.20;2.30;;;;;;;15.01;100.00;98697.53;5048852;28;20094;-71
2022/06/07 01:05:36;;;;;;;5.90;2.25;;;;;;;15.05;100.00;98702.28;5045232;28;20036;-71
2022/06/07 01:10:48;;;;;;;7.97;2.40;;;;;;;15.17;100.00;98715.06;5044112;28;20102;-70
2022/06/07 01:13:16;;;;;;;5.93;2.30;;;;;;;15.16;100.00;98705.25;5049254;28;20027;-70
2022/06/07 01:15:46;;;;;;;3.00;1.98;;;;;;;15.26;100.00;98705.50;5050233;28;20028;-71
2022/06/07 01:18:12;;;;;;;4.20;2.25;;;;;;;15.24;100.00;98715.81;5050718;28;20024;-70
2022/06/07 01:20:38;;;;;;;6.78;2.15;;;;;;;15.23;100.00;98720.44;5046165;28;20029;-70
2022/06/07 01:23:04;;;;;;;2.70;2.00;;;;;;;15.33;100.00;98712.50;5048097;28;20055;-70
2022/06/07 01:25:29;;;;;;;4.95;2.05;;;;;;;15.26;100.00;98708.22;5051930;28;20036;-71
2022/06/07 01:27:54;;;;;;;2.67;1.90;;;;;;;15.13;100.00;98707.38;5052219;28;20029;-71
2022/06/07 01:30:20;;;;;;;5.65;2.20;;;;;;;15.31;100.00;98711.06;5043947;28;20121;-70
2022/06/07 01:32:45;;;;;;;2.08;1.88;;;;;;;15.24;100.00;98685.81;5046360;28;20032;-70
2022/06/07 01:35:11;;;;;;;3.90;2.03;;;;;;;15.37;100.00;98704.66;5053937;28;20028;-70
2022/06/07 01:37:36;;;;;;;5.55;1.95;;;;;;;15.34;100.00;98691.50;5047047;28;20032;-71
2022/06/07 01:42:47;;;;;;;2.80;2.20;;;;;;;15.28;100.00;98706.94;5051753;28;20067;-70
2022/06/07 01:45:12;;;;;;;8.05;2.38;;;;;;;15.35;100.00;98704.06;5050134;28;20032;-70
2022/06/07 01:47:38;;;;;;;4.63;1.80;;;;;;;15.25;100.00;98699.22;5053583;28;20829;-70
2022/06/07 01:50:05;;;;;;;6.38;1.65;;;;;;;15.18;100.00;98708.56;5049798;28;20053;-70
2022/06/07 01:52:33;;;;;;;7.70;1.95;;;;;;;15.19;100.00;98707.50;5050524;28;20118;-71
2022/06/07 01:54:59;;;;;;;2.70;1.67;;;;;;;15.08;100.00;98711.88;5049018;28;20073;-71
2022/06/07 01:57:25;;;;;;;3.65;1.90;;;;;;;14.90;100.00;98700.00;5052591;28;20522;-70
2022/06/07 01:59:51;;;;;;;1.92;1.70;;;;;;;14.86;100.00;98706.97;5049771;28;20083;-70
2022/06/07 02:02:16;;;;;;;2.33;1.60;;;;;;;14.73;100.00;98676.41;5035806;28;20522;-72
2022/06/07 02:04:42;;;;;;;5.53;1.80;;;;;;;14.91;100.00;98703.56;5056221;28;20021;-72
2022/06/07 02:07:09;;;;;;;4.95;1.50;;;;;;;14.87;100.00;98705.09;5053219;28;20467;-72
2022/06/07 02:09:35;;;;;;;2.00;1.30;;;;;;;14.73;100.00;98671.78;5047623;28;20037;-70
2022/06/07 02:12:02;;;;;;;2.38;1.63;;;;;;;14.80;100.00;98690.72;5053693;28;20017;-69
2022/06/07 02:14:28;;;;;;;2.63;1.20;;;;;;;14.89;100.00;98700.25;5054865;28;20059;-70
2022/06/07 02:16:54;;;;;;;1.98;1.15;;;;;;;14.82;100.00;98692.16;5049630;28;20087;-70
2022/06/07 02:19:20;;;;;;;1.85;1.20;;;;;;;14.80;100.00;98688.00;5043498;28;20028;-70
2022/06/07 02:21:45;;;;;;;2.65;1.25;;;;;;;14.97;100.00;98685.44;5040056;28;20033;-69
2022/06/07 02:24:11;;;;;;;4.93;1.63;;;;;;;15.05;100.00;98676.94;5054600;28;20099;-69
2022/06/07 02:26:41;;;;;;;1.33;1.20;;;;;;;15.07;100.00;98675.63;5051960;28;20029;-72
2022/06/07 02:29:12;;;;;;;1.52;1.20;;;;;;;14.95;100.00;98680.22;5025939;28;20032;-70
2022/06/07 02:31:42;;;;;;;1.33;1.15;;;;;;;14.95;100.00;98673.94;5053293;28;20028;-70
2022/06/07 02:34:08;;;;;;;1.83;1.25;;;;;;;14.91;100.00;98670.88;5051422;28;20029;-69
2022/06/07 02:36:35;;;;;;;1.40;1.00;;;;;;;14.84;100.00;98665.53;5050750;28;20021;-70
2022/06/07 02:39:02;;;;;;;3.45;1.50;;;;;;;14.65;100.00;98653.91;5049442;28;20079;-70
2022/06/07 02:41:29;;;;;;;1.60;1.17;;;;;;;14.73;100.00;98660.91;5050712;28;20021;-70
2022/06/07 02:43:54;;;;;;;1.33;1.02;;;;;;;14.77;100.00;98666.69;5052092;28;20033;-70
2022/06/07 02:46:20;;;;;;;1.80;1.20;;;;;;;14.61;100.00;98636.34;5049333;28;20033;-70
2022/06/07 02:48:45;;;;;;;2.45;1.20;;;;;;;14.69;100.00;98663.22;5047359;28;20035;-70
2022/06/07 02:51:11;;;;;;;2.03;1.23;;;;;;;14.68;100.00;98658.88;5035671;28;20537;-70
2022/06/07 02:53:36;;;;;;;1.70;1.25;;;;;;;14.68;100.00;98658.88;5054625;28;20036;-70
2022/06/07 02:56:03;;;;;;;2.55;1.30;;;;;;;14.60;100.00;98652.94;5046860;28;20025;-70
2022/06/07 02:58:29;;;;;;;1.10;1.00;;;;;;;14.57;100.00;98637.06;5049682;28;20036;-71
2022/06/07 03:00:55;;;;;;;3.08;1.38;;;;;;;14.69;100.00;98651.53;5050208;28;20385;-70
2022/06/07 03:03:21;;;;;;;3.28;1.23;;;;;;;14.62;100.00;98664.44;5055902;28;20025;-71
2022/06/07 03:05:46;;;;;;;2.22;1.27;;;;;;;14.60;100.00;98661.09;5049034;28;20033;-71
2022/06/07 03:08:14;;;;;;;4.72;1.52;;;;;;;14.54;100.00;98637.50;5053921;28;20024;-71
2022/06/07 03:10:39;;;;;;;1.85;1.25;;;;;;;14.76;100.00;98644.09;5048251;28;20029;-71
2022/06/07 03:13:05;;;;;;;2.92;1.50;;;;;;;14.57;100.00;98637.06;5034237;28;20023;-71
2022/06/07 03:15:30;;;;;;;4.40;1.30;;;;;;;14.72;100.00;98652.94;5041588;28;20025;-71
2022/06/07 03:17:55;;;;;;;1.65;1.10;;;;;;;14.76;100.00;98654.16;5043440;28;20042;-71
2022/06/07 03:20:21;;;;;;;4.93;1.50;;;;;;;14.79;100.00;98656.41;5049680;28;20028;-71
2022/06/07 03:22:46;;;;;;;3.58;1.17;;;;;;;14.60;100.00;98648.31;5050705;28;20135;-71
2022/06/07 03:25:12;;;;;;;2.53;1.48;;;;;;;14.92;100.00;98660.81;5048391;28;20624;-71
2022/06/07 03:27:38;;;;;;;6.80;1.30;;;;;;;14.90;100.00;98663.75;5048858;28;20025;-71
2022/06/07 03:30:07;;;;;;;3.67;1.38;;;;;;;14.92;100.00;98658.91;5045092;28;20033;-71
2022/06/07 03:32:33;;;;;;;2.42;1.33;;;;;;;14.74;100.00;98645.38;5049894;28;20020;-70
2022/06/07 03:34:59;;;;;;;2.67;1.27;;;;;;;14.87;100.00;98653.34;5048960;28;20052;-71
2022/06/07 03:37:24;;;;;;;4.80;1.70;;;;;;;14.73;100.00;98660.91;5044881;28;20025;-71
2022/06/07 03:39:51;;;;;;;4.05;1.52;;;;;;;14.68;100.00;98667.03;5043194;28;20148;-72
2022/06/07 03:42:17;;;;;;;2.58;1.27;;;;;;;14.59;100.00;98665.72;5025621;28;20487;-71
2022/06/07 03:44:46;;;;;;;2.90;1.60;;;;;;;14.61;100.00;98649.97;5040668;28;20103;-71
2022/06/07 03:47:11;;;;;;;1.88;1.23;;;;;;;14.65;100.00;98651.16;5048797;28;20478;-71
2022/06/07 03:49:36;;;;;;;1.95;1.55;;;;;;;14.72;100.00;98656.50;5032503;28;20029;-71
2022/06/07 03:52:02;;;;;;;2.80;1.35;;;;;;;14.74;100.00;98659.81;5047889;28;20108;-71
2022/06/07 03:54:27;;;;;;;2.45;1.20;;;;;;;14.74;100.00;98645.38;5049185;28;20032;-71
2022/06/07 03:56:52;;;;;;;2.22;1.17;;;;;;;14.73;100.00;98638.28;5048232;28;20490;-75
2022/06/07 03:59:18;;;;;;;2.40;1.20;;;;;;;14.69;100.00;98640.63;5050350;28;20021;-77
2022/06/07 04:01:43;;;;;;;2.45;1.23;;;;;;;14.60;100.00;98631.16;5050866;28;20037;-76
2022/06/07 04:04:09;;;;;;;4.35;1.17;;;;;;;14.77;100.00;98655.81;5049064;28;20016;-75
2022/06/07 04:06:40;;;;;;;1.88;1.02;;;;;;;14.82;100.00;98662.19;5041568;28;20032;-74
2022/06/07 04:09:06;;;;;;;4.72;1.13;;;;;;;14.78;100.00;98660.19;5051084;28;20060;-75
2022/06/07 04:11:31;;;;;;;3.53;1.40;;;;;;;14.67;100.00;98659.94;5031786;28;20125;-76
2022/06/07 04:13:58;;;;;;;2.15;1.30;;;;;;;14.64;100.00;98665.00;5030793;28;20600;-77
2022/06/07 04:16:30;;;;;;;1.23;1.00;;;;;;;14.54;100.00;98651.13;5051929;28;20024;-76
2022/06/07 04:18:55;;;;;;;2.00;1.00;;;;;;;14.70;100.00;98674.97;5050956;28;20387;-75
2022/06/07 04:21:22;;;;;;;3.30;1.17;;;;;;;14.61;100.00;98665.47;5031871;28;20032;-74
2022/06/07 04:23:48;;;;;;;2.53;1.20;;;;;;;14.51;100.00;98637.94;5047994;28;20028;-76
2022/06/07 04:26:17;;;;;;;5.38;1.40;;;;;;;14.66;100.00;98658.25;5048146;28;20418;-76
2022/06/07 04:28:42;;;;;;;1.23;1.00;;;;;;;14.77;100.00;98669.41;5022293;28;20029;-77
2022/06/07 04:31:17;;;;;;;1.40;1.08;;;;;;;14.82;100.00;98673.09;5054080;28;20032;-76
2022/06/07 04:33:44;;;;;;;3.58;1.45;;;;;;;14.70;100.00;98664.09;5028076;28;20545;-73
2022/06/07 04:36:15;;;;;;;2.47;1.80;;;;;;;14.82;100.00;98673.09;5048541;28;20020;-72
2022/06/07 04:38:41;;;;;;;1.48;1.00;;;;;;;14.78;100.00;98671.91;5044561;28;20029;-73
2022/06/07 04:41:08;;;;;;;1.67;1.13;;;;;;;14.77;100.00;98672.13;5036466;28;20374;-75
2022/06/07 04:43:34;;;;;;;1.05;0.90;;;;;;;14.91;100.00;98670.88;5050831;28;20020;-75
2022/06/07 04:46:08;;;;;;;2.58;1.00;;;;;;;14.80;100.00;98660.78;5050230;28;20078;-76
2022/06/07 04:48:34;;;;;;;5.10;1.15;;;;;;;15.05;100.00;98679.66;5046385;28;21250;-76
2022/06/07 04:51:27;;;;;;;4.88;1.48;;;;;;;14.99;100.00;98678.69;5031493;28;20049;-76
2022/06/07 04:53:54;;;;;;;4.57;1.23;;;;;;;14.88;100.00;98676.78;5047172;28;20029;-76
2022/06/07 04:56:25;;;;;;;4.95;1.25;;;;;;;14.85;100.00;98672.63;5051958;28;20031;-75
2022/06/07 04:58:51;;;;;;;1.23;0.98;;;;;;;14.82;100.00;98661.38;5049678;28;20037;-70
2022/06/07 05:01:22;;;;;;;1.88;1.38;;;;;;;14.82;100.00;98658.66;5046324;28;20037;-74
2022/06/07 05:03:48;;;;;;;5.05;1.55;;;;;;;14.97;100.00;98693.63;5050624;28;20413;-78
2022/06/07 05:06:20;;;;;;;2.67;1.40;;;;;;;14.94;100.00;98681.31;5049602;28;20021;-76
2022/06/07 05:08:46;;;;;;;3.35;1.40;;;;;;;15.05;100.00;98701.44;5037503;28;20061;-75
2022/06/07 05:11:12;;;;;;;3.60;1.30;;;;;;;15.02;100.00;98693.75;5034141;28;20028;-76
2022/06/07 05:13:38;;;;;;;1.92;1.35;;;;;;;14.99;100.00;98673.25;5038234;28;20017;-81
2022/06/07 05:16:04;;;;;;;1.77;1.20;;;;;;;15.16;100.00;98683.44;5036154;28;20024;-77
2022/06/07 05:18:30;;;;;;;3.70;0.95;;;;;;;15.52;100.00;98704.19;5055883;28;20021;-78
2022/06/07 05:20:55;;;;;;;1.00;0.90;;;;;;;15.53;100.00;98675.84;5047196;28;20093;-77
2022/06/07 05:23:20;;;;;;;2.53;1.30;;;;;;;15.82;100.00;98708.69;5026299;28;20024;-71
2022/06/07 05:26:10;;;;;;;3.83;1.27;;;;;;;15.79;100.00;98704.53;5056635;28;20037;-80
2022/06/07 05:28:38;;;;;;;3.30;0.90;;;;;;;15.80;100.00;98692.59;5018373;28;20108;-79
2022/06/07 05:31:24;;;;;;;4.50;1.10;;;;;;;16.11;100.00;98713.16;5030784;28;20578;-74
2022/06/07 05:33:51;;;;;;;1.08;0.98;;;;;;;16.21;100.00;98707.06;5019078;28;20033;-77
2022/06/07 05:36:17;;;;;;;2.88;1.40;;;;;;;16.23;100.00;98717.75;5029035;28;20059;-77
2022/06/07 05:38:43;;;;;;;2.55;1.17;;;;;;;16.09;100.00;98703.56;5031825;28;20025;-73
2022/06/07 05:41:16;;;;;;;1.80;1.10;;;;;;;16.08;100.00;98699.16;5036379;28;20059;-76
2022/06/07 05:43:42;;;;;;;2.00;1.60;;;;;;;16.24;100.00;98708.47;5037287;28;20029;-75
2022/06/07 05:46:08;;;;;;;1.67;1.13;;;;;;;16.33;100.00;98702.41;5028698;28;20023;-73
2022/06/07 05:48:35;;;;;;;2.28;1.30;;;;;;;16.68;100.00;98706.03;5036749;28;20071;-73
2022/06/07 05:51:00;;;;;;;2.33;1.13;;;;;;;16.41;100.00;98646.56;5031905;28;20033;-73
2022/06/07 05:53:26;;;;;;;1.52;1.10;;;;;;;16.80;100.00;98717.78;5032021;28;20138;-73
2022/06/07 05:55:51;;;;;;;2.03;1.23;;;;;;;16.60;100.00;98661.66;5033170;28;20048;-73
2022/06/07 05:58:16;;;;;;;2.83;1.17;;;;;;;17.18;100.00;98718.97;5052223;28;20530;-75
2022/06/07 06:00:42;;;;;;;3.70;1.30;;;;;;;17.66;100.00;98718.34;5048692;28;20051;-77
2022/06/07 06:03:08;;;;;;;7.68;1.63;;;;;;;17.95;100.00;98666.22;5032341;28;20489;-77
2022/06/07 06:05:34;;;;;;;4.18;1.35;;;;;;;18.32;100.00;98723.06;5036037;28;20021;-77
2022/06/07 06:10:44;;;;;;;4.32;1.30;;;;;;;18.93;100.00;98701.81;5052527;28;20032;-78
2022/06/07 06:13:10;;;;;;;7.97;1.30;;;;;;;18.68;100.00;98691.41;5036404;28;20041;-78
2022/06/07 06:15:36;;;;;;;4.63;1.02;;;;;;;19.24;100.00;98729.50;5033352;28;20078;-73
2022/06/07 06:18:03;;;;;;;3.97;1.42;;;;;;;19.52;99.19;98713.78;5052470;28;20032;-74
2022/06/07 06:20:29;;;;;;;4.72;1.00;;;;;;;19.62;96.98;98717.47;5041473;28;20021;-73
2022/06/07 06:22:54;;;;;;;2.72;1.15;;;;;;;19.46;97.92;98719.25;5056713;28;20394;-77
2022/06/07 06:25:20;;;;;;;3.40;0.77;;;;;;;19.73;91.29;98723.88;5045507;28;20039;-75
2022/06/07 06:27:45;;;;;;;1.52;0.80;;;;;;;20.14;91.59;98713.91;5046789;28;20029;-74
2022/06/07 06:30:10;;;;;;;2.90;0.73;;;;;;;20.55;81.42;98713.25;5037178;28;20025;-75
2022/06/07 06:32:37;;;;;;;1.33;0.70;;;;;;;20.36;80.82;98710.97;5037320;28;20060;-76
2022/06/07 06:35:03;;;;;;;1.90;0.80;;;;;;;20.10;88.32;98722.97;5058745;28;20431;-77
2022/06/07 06:37:29;;;;;;;1.73;0.60;;;;;;;20.12;84.02;98720.75;5055172;28;20032;-74
2022/06/07 06:39:55;;;;;;;1.45;0.68;;;;;;;20.15;86.26;98692.78;5035897;28;20024;-75
2022/06/07 06:42:20;;;;;;;1.83;0.80;;;;;;;20.45;83.52;98715.94;5049629;28;20021;-75
2022/06/07 06:44:46;;;;;;;3.17;0.70;;;;;;;20.94;80.10;98716.38;5041983;28;20100;-76
2022/06/07 06:47:13;;;;;;;2.05;0.65;;;;;;;21.19;73.04;98690.78;5036495;28;20028;-76
2022/06/07 06:49:39;;;;;;;2.15;0.70;;;;;;;21.39;76.66;98695.47;5054587;28;20028;-76
2022/06/07 06:52:05;;;;;;;1.88;0.70;;;;;;;21.26;72.47;98700.69;5054698;28;20021;-75
2022/06/07 06:54:33;;;;;;;3.22;0.60;;;;;;;21.48;72.03;98705.94;5024650;28;20020;-75
2022/06/07 06:56:59;;;;;;;1.48;0.57;;;;;;;21.71;72.07;98710.03;5044478;28;20020;-76
2022/06/07 06:59:24;;;;;;;1.02;0.40;;;;;;;22.64;67.83;98716.88;5034070;28;20021;-76
2022/06/07 07:01:50;;;;;;;1.90;0.70;;;;;;;22.02;66.46;98714.34;5053229;28;20104;-76
2022/06/07 07:04:17;;;;;;;1.88;0.70;;;;;;;23.54;59.94;98718.41;5040041;28;20028;-78
2022/06/07 07:06:43;;;;;;;4.07;0.40;;;;;;;24.06;57.41;98722.34;5038969;28;20797;-73
2022/06/07 07:09:09;;;;;;;1.73;0.50;;;;;;;23.40;56.74;98699.78;5050955;28;20025;-73
2022/06/07 07:11:38;;;;;;;0.85;0.50;;;;;;;23.40;58.20;98724.63;5048701;28;20033;-74
2022/06/07 07:14:05;;;;;;;;;;;;;;;23.11;60.02;98729.28;5050153;28;20532;-74
2022/06/07 07:16:33;;;;;;;1.27;0.47;;;;;;;22.24;64.70;98724.22;5050040;28;19917;-74
2022/06/07 07:18:59;;;;;;;1.10;0.43;;;;;;;22.97;58.78;98718.06;5044101;28;20048;-76
2022/06/07 07:21:33;;;;;;;0.95;0.52;;;;;;;23.17;56.17;98684.78;5048622;28;20107;-78
2022/06/07 07:24:00;;;;;;;1.65;0.50;;;;;;;24.12;54.74;98718.38;5035728;28;20034;-77
2022/06/07 07:26:28;;;;;;;1.90;0.40;;;;;;;26.34;48.58;98712.63;5042751;28;20029;-76
2022/06/07 07:28:54;;;;;;;0.45;0.32;;;;;;;26.66;46.34;98697.81;5035484;28;20029;-75
2022/06/07 07:31:22;;;;;;;1.85;0.70;;;;;;;25.52;49.08;98686.50;5044580;28;20036;-76
2022/06/07 07:33:48;;;;;;;1.33;0.60;;;;;;;26.24;49.13;98696.22;5033365;28;20395;-77
2022/06/07 07:36:13;;;;;;;1.63;0.50;;;;;;;25.82;47.84;98677.91;5043895;28;20028;-77
2022/06/07 07:38:41;;;;;;;0.52;0.30;;;;;;;24.29;52.00;98687.50;5043631;28;20084;-78
2022/06/07 07:41:25;;;;;;;1.85;0.50;;;;;;;24.53;52.66;98700.50;5062488;28;20437;-78
2022/06/07 07:43:52;;;;;;;1.42;0.52;;;;;;;22.25;60.94;98728.63;5043788;28;20043;-75
2022/06/07 07:46:20;;;;;;;0.65;0.30;;;;;;;23.31;57.26;98707.00;5055739;28;20057;-77
2022/06/07 07:48:45;;;;;;;0.60;0.30;;;;;;;25.07;52.00;98705.50;5051292;28;20056;-76
2022/06/07 07:51:18;;;;;;;1.38;0.40;;;;;;;25.32;49.28;98689.63;5029567;28;20048;-76
2022/06/07 07:53:44;;;;;;;1.23;0.50;;;;;;;26.48;48.90;98695.97;5032463;28;20025;-76
2022/06/07 07:56:09;;;;;;;1.23;0.32;;;;;;;26.53;46.33;98686.75;5047235;28;20635;-76
2022/06/07 07:58:35;;;;;;;1.77;0.47;;;;;;;26.21;48.59;98686.56;5053179;28;20028;-76
2022/06/07 08:01:07;;;;;;;1.17;0.52;;;;;;;25.67;48.75;98707.53;5053286;28;20131;-76
2022/06/07 08:03:33;;;;;;;0.50;0.40;;;;;;;27.65;43.90;98700.72;5044003;28;20028;-76
2022/06/07 08:05:58;;;;;;;0.75;0.50;;;;;;;30.36;38.78;98692.13;5043874;28;20024;-75
2022/06/07 08:08:24;;;;;;;1.75;0.40;;;;;;;29.85;38.53;98696.78;5047136;28;20021;-76
2022/06/07 08:10:50;;;;;;;1.17;0.50;;;;;;;27.85;41.50;98704.09;5046222;28;20029;-76
2022/06/07 08:13:16;;;;;;;5.28;0.60;;;;;;;27.96;41.07;98699.91;5043792;28;20514;-76
2022/06/07 08:15:42;;;;;;;2.17;0.45;;;;;;;27.84;41.35;98694.94;5024876;28;20028;-75
2022/06/07 08:18:07;;;;;;;2.60;0.47;;;;;;;26.85;44.45;98700.47;5049417;28;20021;-75
2022/06/07 08:20:35;;;;;;;1.65;0.40;;;;;;;25.50;47.96;98701.78;5032177;28;20033;-75
2022/06/07 08:23:01;;;;;;;1.98;0.63;;;;;;;26.26;46.47;98702.28;5052870;28;20028;-76
2022/06/07 08:25:27;;;;;;;0.63;0.35;;;;;;;27.51;44.63;98691.66;5033634;28;20049;-72
2022/06/07 08:27:52;;;;;;;1.50;0.40;;;;;;;26.78;45.36;98685.38;5046472;28;20076;-72
2022/06/07 08:30:17;;;;;;;1.92;0.40;;;;;;;24.71;50.02;98694.97;5049526;28;20383;-69
2022/06/07 08:32:43;;;;;;;5.82;0.50;;;;;;;25.56;47.35;98689.47;5048633;28;20051;-69
2022/06/07 08:37:58;;;;;;;1.95;0.40;;;;;;;26.04;45.69;98674.44;5047079;28;20082;-67
2022/06/07 08:40:36;;;;;;;5.53;0.40;;;;;;;27.66;43.33;98684.84;5042381;28;20040;-65
2022/06/07 08:43:07;;;;;;;3.37;0.43;;;;;;;27.71;43.08;98679.16;5039100;28;20524;-67
2022/06/07 08:45:37;;;;;;;1.42;0.40;;;;;;;29.46;38.88;98665.19;5041814;28;20494;-69
2022/06/07 08:48:18;;;;;;;0.40;0.30;;;;;;;30.83;35.95;98682.81;5041483;28;20033;-66
2022/06/07 08:50:59;;;;;;;1.00;0.30;;;;;;;32.40;34.32;98681.94;5041747;28;20025;-68
2022/06/07 08:53:37;;;;;;;3.95;0.40;;;;;;;31.77;34.41;98684.22;5041002;28;20036;-68
2022/06/07 08:56:08;;;;;;;0.70;0.30;;;;;;;33.20;33.66;98682.38;5042963;28;20533;-72
2022/06/07 08:58:41;;;;;;;0.55;0.20;;;;;;;30.08;36.37;98682.56;5043638;28;20077;-72
2022/06/07 09:01:21;;;;;;;1.92;0.60;;;;;;;27.81;38.20;98687.25;5045213;28;20057;-67
2022/06/07 09:04:30;;;;;;;1.80;0.40;;;;;;;28.86;37.09;98671.63;5047150;28;20033;-72
2022/06/07 09:07:00;;;;;;;1.05;0.40;;;;;;;28.07;37.83;98651.19;4984918;28;20536;-72
2022/06/07 09:12:09;;;;;;;0.52;0.30;;;;;;;28.81;37.19;98669.84;4987363;28;20041;-70
2022/06/07 09:12:35;;;;;;;0.65;0.25;;;;;;;30.49;35.01;98662.31;5026949;28;20090;-72
2022/06/07 09:15:17;;;;;;;2.08;0.40;;;;;;;30.45;33.87;98668.94;5049717;28;20033;-67
2022/06/07 09:17:47;;;;;;;1.60;0.77;;;;;;;29.73;35.72;98665.16;5045397;28;20033;-67
2022/06/07 09:20:17;;;;;;;1.38;0.73;;;;;;;28.85;35.93;98661.66;5045889;28;20037;-73
2022/06/07 09:22:52;;;;;;;1.27;0.30;;;;;;;28.08;38.63;98663.94;5050351;28;20112;-67
2022/06/07 09:25:26;;;;;;;2.20;0.47;;;;;;;28.92;36.95;98661.97;5046378;28;20456;-67
2022/06/07 09:27:52;;;;;;;1.98;0.40;;;;;;;30.67;35.46;98657.44;5049034;28;20078;-68
2022/06/07 09:30:22;;;;;;;0.90;0.25;;;;;;;28.46;37.10;98654.28;5050960;28;20108;-68
2022/06/07 09:32:51;;;;;;;1.73;0.32;;;;;;;29.82;35.56;98657.59;5048227;28;20064;-69
2022/06/07 09:35:18;;;;;;;2.17;0.25;;;;;;;31.71;34.80;98649.25;5046625;28;20474;-66
2022/06/07 09:37:59;;;;;;;1.88;0.38;;;;;;;33.41;32.00;98648.53;5047180;28;20024;-66
2022/06/07 09:40:27;;;;;;;1.55;0.35;;;;;;;31.55;31.34;98649.13;5050381;28;20047;-69
2022/06/07 09:43:01;;;;;;;1.58;0.40;;;;;;;29.18;33.97;98650.00;5053926;28;20036;-69
2022/06/07 09:45:47;;;;;;;1.17;0.40;;;;;;;31.25;33.14;98638.03;5049583;28;20040;-69
2022/06/07 09:48:43;;;;;;;4.25;0.40;;;;;;;29.30;34.08;98641.81;5047358;28;20025;-68
2022/06/07 09:51:22;;;;;;;1.60;0.30;;;;;;;31.20;32.34;98630.72;5045845;28;20552;-68
2022/06/07 09:54:01;;;;;;;3.42;0.30;;;;;;;33.90;28.88;98631.34;5035274;28;20114;-68
2022/06/07 09:57:17;;;;;;;0.82;0.30;;;;;;;34.59;29.44;98629.03;5052385;28;20040;-70
2022/06/07 10:00:02;;;;;;;1.92;0.28;;;;;;;32.26;31.55;98623.50;5008344;28;20049;-69
2022/06/07 10:02:40;;;;;;;0.70;0.22;;;;;;;29.51;34.94;98630.75;5041371;28;20025;-67
2022/06/07 10:05:35;;;;;;;1.27;0.38;;;;;;;30.95;35.17;98635.38;5046280;28;20033;-76
2022/06/07 10:08:39;;;;;;;0.40;0.20;;;;;;;31.94;32.38;98616.91;5052792;28;20107;-75
2022/06/07 10:11:43;;;;;;;3.92;0.70;;;;;;;29.26;34.81;98626.88;5032663;28;20078;-69
2022/06/07 10:14:45;;;;;;;3.38;0.45;;;;;;;26.47;39.64;98627.75;5053293;28;20478;-70
2022/06/07 10:17:48;;;;;;;1.02;0.30;;;;;;;26.38;42.19;98629.63;5048194;28;20033;-69
2022/06/07 10:20:16;;;;;;;1.58;0.40;;;;;;;26.05;42.18;98624.25;5041391;28;20040;-74
2022/06/07 10:23:06;;;;;;;1.40;0.50;;;;;;;25.11;44.89;98619.91;5034057;28;20033;-73
2022/06/07 10:25:52;;;;;;;1.95;0.40;;;;;;;24.10;45.86;98632.16;5048133;28;20087;-70
2022/06/07 10:28:33;;;;;;;0.80;0.20;;;;;;;27.98;40.07;98611.41;5049505;28;20502;-69
2022/06/07 10:31:11;;;;;;;1.00;0.38;;;;;;;30.76;35.84;98613.50;5049407;28;20047;-69
2022/06/07 10:33:50;;;;;;;1.67;0.30;;;;;;;31.19;35.11;98608.69;5052622;28;20398;-69
2022/06/07 10:37:12;;;;;;;2.58;0.40;;;;;;;29.18;36.01;98616.59;5044206;28;20934;-69
2022/06/07 10:39:58;;;;;;;1.17;0.40;;;;;;;29.63;35.57;98599.38;4967690;28;20852;-70
2022/06/07 10:42:26;;;;;;;1.17;0.40;;;;;;;28.76;36.34;98611.53;4969692;28;20042;-69
2022/06/07 10:45:38;;;;;;;1.00;0.32;;;;;;;26.79;39.29;98609.28;5099301;27;20354;-80
2022/06/07 10:48:13;;;;;;;1.20;0.38;;;;;;;26.32;40.08;98606.72;5095674;28;20490;-74
2022/06/07 10:54:05;;;;;;;0.30;0.30;;;;;;;25.13;45.02;98607.41;5080095;28;20088;-74
2022/06/07 10:56:36;;;;;;;0.93;0.30;;;;;;;27.62;39.15;98598.53;5076230;28;20032;-74
2022/06/07 10:59:15;;;;;;;0.75;0.28;;;;;;;30.25;35.98;98595.16;5072534;28;20035;-74
2022/06/07 11:01:50;;;;;;;0.93;0.30;;;;;;;31.54;32.67;98586.75;5085230;28;20371;-74
2022/06/07 11:10:20;;;;;;;2.88;0.40;;;;;;;34.93;27.70;98585.19;5077992;28;20111;-72
2022/06/07 11:13:17;;;;;;;0.20;0.20;;;;;;;35.22;29.91;98583.75;5075021;28;20066;-72
2022/06/07 11:16:03;;;;;;;1.02;0.20;;;;;;;35.35;26.99;98587.22;5077557;28;20035;-73
2022/06/07 11:18:29;;;;;;;1.25;0.30;;;;;;;34.02;28.04;98570.31;5080957;28;20027;-76
2022/06/07 11:21:00;;;;;;;0.82;0.20;;;;;;;33.65;30.57;98574.63;5085988;28;20020;-77
2022/06/07 11:23:31;;;;;;;1.48;0.50;;;;;;;32.28;30.90;98554.00;5081855;28;20050;-78
2022/06/07 11:25:57;;;;;;;1.55;0.30;;;;;;;30.88;33.55;98573.66;5080937;28;20020;-72
2022/06/07 11:28:34;;;;;;;1.70;0.33;;;;;;;30.27;33.60;98557.41;5080050;28;20378;-78
2022/06/07 11:31:16;;;;;;;1.25;0.40;;;;;;;30.23;35.51;98567.59;5073684;28;20109;-76
2022/06/07 11:33:51;;;;;;;0.65;0.52;;;;;;;32.57;32.18;98566.06;5081645;28;20020;-77
2022/06/07 11:36:28;;;;;;;2.22;0.60;;;;;;;32.93;29.52;98562.31;5079569;28;20050;-77
2022/06/07 11:38:57;;;;;;;0.30;0.30;;;;;;;32.95;30.48;98559.94;5082283;28;20107;-75
2022/06/07 11:41:37;;;;;;;0.95;0.32;;;;;;;30.58;32.97;98545.81;5082285;28;20023;-76
2022/06/07 11:44:08;;;;;;;1.48;0.30;;;;;;;29.27;34.89;98547.72;5083397;28;20382;-75
2022/06/07 11:46:33;;;;;;;0.77;0.30;;;;;;;28.41;36.93;98555.84;5075575;28;20039;-77
2022/06/07 11:49:19;;;;;;;2.27;0.40;;;;;;;26.02;40.24;98550.00;5075619;28;20037;-78
2022/06/07 11:52:13;;;;;;;2.42;0.40;;;;;;;26.92;41.29;98549.28;5083005;28;20290;-77
2022/06/07 11:54:50;;;;;;;0.95;0.40;;;;;;;27.68;37.47;98543.59;5079204;28;20520;-76
2022/06/07 11:57:38;;;;;;;0.68;0.40;;;;;;;27.89;38.48;98549.41;5059792;28;20138;-77
2022/06/07 12:00:18;;;;;;;0.93;0.40;;;;;;;26.69;39.49;98551.25;5067787;28;20056;-77
2022/06/07 12:03:02;;;;;;;0.95;0.30;;;;;;;26.53;40.71;98551.63;5062594;28;20032;-77
2022/06/07 12:05:37;;;;;;;0.85;0.40;;;;;;;27.93;37.75;98544.84;5066889;28;20425;-77